This is the latest recevied weather packets stored in our database for station/object SR5NLK-1. If no packets are shown the sender has not sent any weather packets the latest 10 day(s).
| Time | Temp. | Humidity | Pressure | Rain* | Wind** | Luminosity | Snow |
|---|---|---|---|---|---|---|---|
| 1787895817 | 20.56° C | 59% | 1080.8 hPa | 0 mm | - | - | - |
| 1787895769 | 20° C | 64% | 1065.8 hPa | 0 mm | - | - | - |
| 1787895724 | 18.89° C | 68% | 1059.5 hPa | 0 mm | - | - | - |
| 1787895724 | 22.22° C | 53% | 1040.2 hPa | 0 mm | - | - | - |
| 1787895697 | 13.89° C | 82% | 1011.7 hPa | 0 mm | - | - | - |
| 1787895663 | 13.89° C | 82% | 1011.7 hPa | 0 mm | - | - | - |
| 1787895657 | 20.56° C | 59% | 1080.8 hPa | 0 mm | - | - | - |
| 1787895627 | 16.67° C | 77% | 995.2 hPa | 0 mm | - | - | - |
| 1787895611 | 20° C | 64% | 1065.8 hPa | 0 mm | - | - | - |
| 1787895597 | 22.22° C | 53% | 1040.2 hPa | 0 mm | - | - | - |
| 1787895590 | 18.89° C | 68% | 1059.5 hPa | 0 mm | - | - | - |
| 1787895563 | 16.67° C | 77% | 995.2 hPa | 0 mm | - | - | - |
| 1787895494 | 13.89° C | 82% | 1011.7 hPa | 0 mm | - | - | - |
| 1787895340 | 22.22° C | 54% | 995.3 hPa | 0 mm | - | - | - |
| 1787895297 | 22.22° C | 54% | 995.3 hPa | 0 mm | - | - | - |
| 1787895152 | 12.22° C | 79% | 1059.5 hPa | 0 mm | - | - | - |
| 1787895132 | 12.22° C | 79% | 1103.3 hPa | 0 mm | - | - | - |
| 1787895056 | 21.67° C | 55% | 1023.6 hPa | 0 mm | - | - | - |
| 1787895028 | 21.67° C | 56% | 1068.3 hPa | 0 mm | - | - | - |
| 1787894997 | 21.67° C | 56% | 1068.3 hPa | 0 mm | - | - | - |
| 1787894978 | 11.67° C | 79% | 1075.3 hPa | 0 mm | - | - | - |
| 1787894772 | 21.11° C | 56% | 1040.4 hPa | 0 mm | - | - | - |
| 1787894734 | 21.11° C | 56% | 1040.4 hPa | 0 mm | - | - | - |
| 1787894697 | 21.11° C | 56% | 1040.4 hPa | 0 mm | - | - | - |
| 1787894644 | 12.78° C | 80% | 1084.2 hPa | 0 mm | - | - | - |
* Rain latest hour (hover to see other rain measurements)
** Current wind speed in m/s (hover to see current wind gust speed)